createdAt,value
2023-03-06T00:01:36.090Z,6.40
2023-03-06T00:04:03.030Z,6.35
2023-03-06T00:06:30.106Z,6.05
2023-03-06T00:08:56.950Z,6.90
2023-03-06T00:11:23.759Z,6.90
2023-03-06T00:13:50.571Z,6.38
2023-03-06T00:16:17.424Z,6.90
2023-03-06T00:18:45.105Z,6.15
2023-03-06T00:21:11.939Z,6.25
2023-03-06T00:23:39.284Z,6.28
2023-03-06T00:26:07.572Z,5.82
2023-03-06T00:28:34.828Z,6.38
2023-03-06T00:31:02.165Z,6.13
2023-03-06T00:33:29.196Z,6.28
2023-03-06T00:35:56.241Z,6.25
2023-03-06T00:38:23.149Z,6.35
2023-03-06T00:40:50.136Z,5.57
2023-03-06T00:43:16.941Z,6.95
2023-03-06T00:45:43.982Z,5.82
2023-03-06T00:48:10.836Z,5.72
2023-03-06T00:50:37.761Z,6.10
2023-03-06T00:53:04.591Z,6.25
2023-03-06T00:55:33.462Z,6.22
2023-03-06T00:58:00.356Z,5.78
2023-03-06T01:00:27.364Z,5.75
2023-03-06T01:02:54.245Z,6.20
2023-03-06T01:05:21.332Z,5.88
2023-03-06T01:07:48.182Z,6.03
2023-03-06T01:10:15.034Z,6.78
2023-03-06T01:12:41.861Z,6.43
2023-03-06T01:15:09.187Z,5.85
2023-03-06T01:17:36.086Z,6.90
2023-03-06T01:20:03.034Z,6.60
2023-03-06T01:22:29.935Z,6.85
2023-03-06T01:24:56.715Z,6.95
2023-03-06T01:27:23.482Z,7.03
2023-03-06T01:29:50.350Z,5.82
2023-03-06T01:32:17.144Z,7.13
2023-03-06T01:34:43.974Z,5.88
2023-03-06T01:37:10.876Z,5.80
2023-03-06T01:39:37.689Z,6.45
2023-03-06T01:42:04.607Z,6.07
2023-03-06T01:44:31.392Z,6.05
2023-03-06T01:46:58.652Z,5.72
2023-03-06T01:49:28.627Z,6.32
2023-03-06T01:52:15.726Z,6.25
2023-03-06T01:54:45.830Z,6.03
2023-03-06T01:57:14.872Z,6.10
2023-03-06T01:59:42.537Z,5.57
2023-03-06T02:02:10.571Z,5.78
2023-03-06T02:04:39.619Z,5.80
2023-03-06T02:07:07.097Z,5.50
2023-03-06T02:09:34.851Z,6.03
2023-03-06T02:12:02.385Z,6.10
2023-03-06T02:14:29.809Z,6.28
2023-03-06T02:16:56.739Z,6.30
2023-03-06T02:19:26.489Z,5.80
2023-03-06T02:21:53.348Z,5.13
2023-03-06T02:24:29.583Z,5.65
2023-03-06T02:26:56.719Z,5.85
2023-03-06T02:29:25.127Z,5.63
2023-03-06T02:31:51.970Z,6.00
2023-03-06T02:34:21.697Z,5.97
2023-03-06T02:36:53.575Z,5.28
2023-03-06T02:41:47.037Z,5.40
2023-03-06T02:44:13.795Z,6.32
2023-03-06T02:46:40.613Z,5.45
2023-03-06T02:49:07.400Z,6.20
2023-03-06T02:51:35.122Z,5.57
2023-03-06T02:54:02.074Z,6.32
2023-03-06T02:56:28.932Z,5.60
2023-03-06T02:58:55.735Z,6.00
2023-03-06T03:01:23.087Z,6.25
2023-03-06T03:03:49.984Z,5.57
2023-03-06T03:06:16.902Z,6.05
2023-03-06T03:08:43.775Z,5.72
2023-03-06T03:11:10.749Z,5.35
2023-03-06T03:13:38.022Z,5.35
2023-03-06T03:16:09.158Z,5.72
2023-03-06T03:18:36.265Z,5.82
2023-03-06T03:21:06.765Z,5.50
2023-03-06T03:23:33.575Z,5.32
2023-03-06T03:26:07.649Z,5.57
2023-03-06T03:28:34.505Z,5.32
2023-03-06T03:31:04.950Z,4.45
2023-03-06T03:33:31.953Z,4.60
2023-03-06T03:35:59.713Z,5.05
2023-03-06T03:38:26.524Z,4.97
2023-03-06T03:40:53.318Z,5.35
2023-03-06T03:43:20.372Z,4.75
2023-03-06T03:45:47.170Z,4.88
2023-03-06T03:48:14.024Z,4.55
2023-03-06T03:50:40.785Z,5.10
2023-03-06T03:53:07.587Z,4.65
2023-03-06T03:55:34.388Z,4.90
2023-03-06T03:58:01.156Z,5.00
2023-03-06T04:00:28.075Z,5.07
2023-03-06T04:02:55.057Z,4.68
2023-03-06T04:05:21.866Z,4.60
2023-03-06T04:07:48.649Z,4.35
2023-03-06T04:10:15.709Z,4.22
2023-03-06T04:12:42.489Z,4.75
2023-03-06T04:15:09.525Z,4.45
2023-03-06T04:17:36.404Z,4.47
2023-03-06T04:20:04.893Z,4.72
2023-03-06T04:22:31.706Z,5.00
2023-03-06T04:24:58.502Z,4.18
2023-03-06T04:27:25.457Z,4.78
2023-03-06T04:29:54.178Z,4.22
2023-03-06T04:32:21.602Z,4.22
2023-03-06T04:34:48.592Z,4.32
2023-03-06T04:37:20.798Z,4.60
2023-03-06T04:39:48.029Z,4.82
2023-03-06T04:42:15.180Z,4.75
2023-03-06T04:44:42.210Z,4.07
2023-03-06T04:47:09.088Z,4.50
2023-03-06T04:49:36.158Z,4.68
2023-03-06T04:52:03.289Z,4.32
2023-03-06T04:54:30.197Z,4.20
2023-03-06T04:56:57.369Z,3.97
2023-03-06T04:59:24.411Z,3.97
2023-03-06T05:01:51.359Z,4.32
2023-03-06T05:04:18.372Z,3.88
2023-03-06T05:06:45.164Z,4.32
2023-03-06T05:09:11.947Z,4.90
2023-03-06T05:11:38.741Z,3.70
2023-03-06T05:14:05.712Z,3.97
2023-03-06T05:16:32.496Z,3.78
2023-03-06T05:18:59.366Z,3.75
2023-03-06T05:21:26.192Z,3.88
2023-03-06T05:23:53.050Z,4.30
2023-03-06T05:26:20.156Z,4.40
2023-03-06T05:28:47.020Z,4.47
2023-03-06T05:31:13.910Z,3.95
2023-03-06T05:33:40.712Z,4.90
2023-03-06T05:36:08.684Z,4.45
2023-03-06T05:38:35.511Z,4.07
2023-03-06T05:41:02.330Z,3.88
2023-03-06T05:43:29.207Z,4.10
2023-03-06T05:46:03.099Z,4.13
2023-03-06T05:48:30.228Z,4.32
2023-03-06T05:51:00.832Z,4.15
2023-03-06T05:53:29.312Z,4.03
2023-03-06T05:56:01.081Z,4.72
2023-03-06T05:58:28.592Z,4.32
2023-03-06T06:00:55.456Z,4.53
2023-03-06T06:03:22.458Z,3.58
2023-03-06T06:05:49.598Z,4.70
2023-03-06T06:08:16.434Z,4.80
2023-03-06T06:10:43.249Z,5.10
2023-03-06T06:13:11.040Z,4.47
2023-03-06T06:15:38.561Z,4.53
2023-03-06T06:18:05.420Z,4.28
2023-03-06T06:20:32.205Z,4.68
2023-03-06T06:22:59.016Z,4.47
2023-03-06T06:25:25.803Z,4.68
2023-03-06T06:27:54.303Z,4.40
2023-03-06T06:30:21.442Z,4.60
2023-03-06T06:32:48.386Z,5.32
2023-03-06T06:35:15.228Z,5.10
2023-03-06T06:37:42.080Z,4.82
2023-03-06T06:40:09.264Z,4.32
2023-03-06T06:42:39.938Z,5.15
2023-03-06T06:45:07.931Z,4.15
2023-03-06T06:47:34.781Z,4.35
2023-03-06T06:50:01.696Z,4.43
2023-03-06T06:52:28.524Z,4.55
2023-03-06T06:54:55.351Z,5.32
2023-03-06T06:57:22.177Z,4.90
2023-03-06T06:59:50.159Z,5.28
2023-03-06T07:02:18.695Z,5.32
2023-03-06T07:05:02.135Z,4.78
2023-03-06T07:07:29.820Z,5.43
2023-03-06T07:09:56.679Z,5.55
2023-03-06T07:12:23.495Z,5.35
2023-03-06T07:14:50.319Z,5.60
2023-03-06T07:17:17.132Z,5.07
2023-03-06T07:19:44.127Z,5.85
2023-03-06T07:22:11.068Z,5.55
2023-03-06T07:24:37.940Z,5.40
2023-03-06T07:27:04.768Z,6.10
2023-03-06T07:29:33.044Z,5.95
2023-03-06T07:32:00.158Z,5.53
2023-03-06T07:34:27.031Z,5.45
2023-03-06T07:36:53.919Z,5.68
2023-03-06T07:39:20.755Z,5.80
2023-03-06T07:41:47.630Z,5.75
2023-03-06T07:44:14.685Z,5.93
2023-03-06T07:46:41.633Z,5.63
2023-03-06T07:49:08.803Z,6.40
2023-03-06T07:51:35.668Z,5.82
2023-03-06T07:54:02.458Z,5.25
2023-03-06T07:56:29.531Z,5.50
2023-03-06T07:58:57.154Z,5.72
2023-03-06T08:01:24.442Z,5.38
2023-03-06T08:03:51.682Z,5.90
2023-03-06T08:06:20.442Z,5.45
2023-03-06T08:08:47.809Z,4.97
2023-03-06T08:11:15.866Z,5.32
2023-03-06T08:13:42.743Z,4.32
2023-03-06T08:16:10.072Z,4.75
2023-03-06T08:18:39.656Z,5.40
2023-03-06T08:21:25.977Z,4.15
2023-03-06T08:23:52.845Z,4.40
2023-03-06T08:26:20.676Z,4.00
2023-03-06T08:28:47.480Z,5.20
2023-03-06T08:31:22.340Z,4.82
2023-03-06T08:33:49.181Z,4.97
2023-03-06T08:36:16.045Z,4.68
2023-03-06T08:38:42.887Z,5.03
2023-03-06T08:41:09.901Z,4.97
2023-03-06T08:43:36.665Z,4.28
2023-03-06T08:46:03.641Z,4.18
2023-03-06T08:48:30.639Z,5.05
2023-03-06T08:50:57.481Z,4.78
2023-03-06T08:53:40.258Z,4.53
2023-03-06T08:56:14.561Z,4.50
2023-03-06T08:58:41.529Z,5.43
2023-03-06T09:01:12.914Z,4.50
2023-03-06T09:03:39.745Z,4.40
2023-03-06T09:06:06.563Z,4.10
2023-03-06T09:08:33.542Z,4.63
2023-03-06T09:11:00.385Z,4.97
2023-03-06T09:13:27.293Z,4.38
2023-03-06T09:15:54.261Z,4.28
2023-03-06T09:18:21.071Z,5.03
2023-03-06T09:20:47.889Z,4.15
2023-03-06T09:23:14.728Z,4.63
2023-03-06T09:25:41.489Z,5.50
2023-03-06T09:28:11.797Z,5.18
2023-03-06T09:30:40.083Z,5.70
2023-03-06T09:33:06.939Z,4.88
2023-03-06T09:35:33.734Z,5.28
2023-03-06T09:38:00.572Z,5.45
2023-03-06T09:40:52.500Z,4.90
2023-03-06T09:43:21.512Z,4.90
2023-03-06T09:45:48.324Z,5.22
2023-03-06T09:48:15.848Z,5.43
2023-03-06T09:50:58.834Z,5.47
2023-03-06T09:53:26.319Z,5.03
2023-03-06T09:55:59.801Z,5.57
2023-03-06T09:58:28.779Z,5.00
2023-03-06T10:00:59.693Z,4.88
2023-03-06T10:03:33.305Z,4.78
2023-03-06T10:06:38.822Z,4.75
2023-03-06T10:09:11.241Z,5.65
2023-03-06T10:11:58.338Z,5.13
2023-03-06T10:14:28.151Z,5.60
2023-03-06T10:16:55.196Z,4.55
2023-03-06T10:19:22.114Z,5.22
2023-03-06T10:22:13.814Z,5.13
2023-03-06T10:24:59.868Z,5.13
2023-03-06T10:27:39.723Z,5.40
2023-03-06T10:30:18.402Z,4.97
2023-03-06T10:32:49.451Z,5.20
2023-03-06T10:35:21.922Z,4.70
2023-03-06T10:37:48.959Z,4.63
2023-03-06T10:40:20.080Z,5.18
2023-03-06T10:42:46.938Z,4.93
2023-03-06T10:45:17.528Z,4.88
2023-03-06T10:47:44.479Z,5.30
2023-03-06T10:50:30.858Z,4.68
2023-03-06T10:53:00.862Z,4.70
2023-03-06T10:55:27.744Z,4.15
2023-03-06T10:57:54.706Z,3.78
2023-03-06T11:00:29.434Z,3.75
2023-03-06T11:03:05.373Z,3.78
2023-03-06T11:05:32.317Z,3.95
2023-03-06T11:08:00.507Z,3.78
2023-03-06T11:10:28.681Z,3.55
2023-03-06T11:13:10.527Z,3.42
2023-03-06T11:15:37.354Z,3.58
2023-03-06T11:18:10.168Z,2.83
2023-03-06T11:20:51.479Z,3.70
2023-03-06T11:23:28.095Z,3.25
2023-03-06T11:26:05.359Z,3.60
2023-03-06T11:28:38.190Z,3.15
2023-03-06T11:31:16.805Z,3.30
2023-03-06T11:33:49.875Z,3.30
2023-03-06T11:36:35.608Z,3.80
2023-03-06T11:39:04.700Z,2.88
2023-03-06T11:41:35.762Z,3.40
2023-03-06T11:44:15.666Z,3.72
2023-03-06T11:46:49.704Z,3.53
2023-03-06T11:49:22.373Z,2.67
2023-03-06T11:51:54.639Z,2.88
2023-03-06T11:54:21.823Z,3.00
2023-03-06T11:56:51.809Z,2.95
2023-03-06T11:59:37.604Z,2.78
2023-03-06T12:02:29.288Z,2.92
2023-03-06T12:05:12.166Z,3.03
2023-03-06T12:07:45.261Z,2.45
2023-03-06T12:10:15.147Z,2.42
2023-03-06T12:12:48.111Z,2.80
2023-03-06T12:15:30.696Z,2.90
2023-03-06T12:18:18.876Z,2.90
2023-03-06T12:20:45.717Z,2.88
2023-03-06T12:23:18.722Z,3.50
2023-03-06T12:25:54.718Z,3.72
2023-03-06T12:28:31.973Z,3.00
2023-03-06T12:31:02.561Z,3.03
2023-03-06T12:33:52.885Z,2.85
2023-03-06T12:36:19.712Z,2.67
2023-03-06T12:38:59.947Z,3.35
2023-03-06T12:41:26.713Z,3.05
2023-03-06T12:43:53.592Z,3.15
2023-03-06T12:46:21.873Z,2.90
2023-03-06T12:48:56.734Z,2.95
2023-03-06T12:51:23.995Z,3.00
2023-03-06T12:53:51.201Z,3.03
2023-03-06T12:56:18.475Z,2.70
2023-03-06T12:58:50.053Z,2.58
2023-03-06T13:01:27.725Z,2.38
2023-03-06T13:04:01.356Z,2.30
2023-03-06T13:06:50.814Z,2.28
2023-03-06T13:09:30.771Z,2.38
2023-03-06T13:12:00.782Z,2.13
2023-03-06T13:14:54.598Z,2.47
2023-03-06T13:17:26.784Z,2.20
2023-03-06T13:22:27.981Z,2.10
2023-03-06T13:25:13.571Z,2.50
2023-03-06T13:27:52.336Z,2.60
2023-03-06T13:30:37.315Z,2.30
2023-03-06T13:33:22.605Z,2.28
2023-03-06T13:35:54.012Z,2.28
2023-03-06T13:38:50.289Z,1.88
2023-03-06T13:41:23.208Z,2.20
2023-03-06T13:43:51.245Z,1.95
2023-03-06T13:46:25.948Z,1.77
2023-03-06T13:49:08.103Z,1.90
2023-03-06T13:51:43.164Z,1.92
2023-03-06T13:54:28.581Z,1.83
2023-03-06T13:57:09.691Z,2.00
2023-03-06T13:59:36.490Z,1.95
2023-03-06T14:02:03.279Z,1.83
2023-03-06T14:04:38.171Z,1.52
2023-03-06T14:07:06.529Z,1.88
2023-03-06T14:09:35.785Z,2.08
2023-03-06T14:12:06.695Z,1.70
2023-03-06T14:14:43.624Z,2.17
2023-03-06T14:17:18.153Z,2.05
2023-03-06T14:19:45.101Z,1.60
2023-03-06T14:22:14.156Z,1.63
2023-03-06T14:24:42.520Z,1.13
2023-03-06T14:27:16.616Z,1.20
2023-03-06T14:29:44.623Z,0.93
2023-03-06T14:32:12.228Z,1.02
2023-03-06T14:34:46.031Z,1.00
2023-03-06T14:37:21.079Z,1.30
2023-03-06T14:39:48.202Z,1.27
2023-03-06T14:42:22.328Z,1.20
2023-03-06T14:44:49.695Z,1.10
2023-03-06T14:47:16.461Z,0.93
2023-03-06T14:49:43.274Z,1.35
2023-03-06T14:52:20.938Z,1.20
2023-03-06T14:54:48.024Z,1.10
2023-03-06T14:57:18.130Z,1.20
2023-03-06T14:59:56.317Z,1.10
2023-03-06T15:02:25.006Z,1.20
2023-03-06T15:04:53.638Z,1.10
2023-03-06T15:07:25.654Z,1.23
2023-03-06T15:09:53.433Z,1.00
2023-03-06T15:12:20.218Z,1.02
2023-03-06T15:15:04.415Z,0.93
2023-03-06T15:19:59.773Z,1.00
2023-03-06T15:22:29.904Z,1.25
2023-03-06T15:25:15.471Z,1.20
2023-03-06T15:27:47.273Z,1.10
2023-03-06T15:30:33.563Z,0.90
2023-03-06T15:33:19.453Z,1.20
2023-03-06T15:36:02.701Z,1.40
2023-03-06T15:38:33.012Z,1.50
2023-03-06T15:41:00.836Z,1.20
2023-03-06T15:43:28.693Z,1.35
2023-03-06T15:45:58.445Z,1.40
2023-03-06T15:48:25.599Z,1.35
2023-03-06T15:50:52.483Z,1.30
2023-03-06T15:53:20.429Z,1.63
2023-03-06T15:55:47.600Z,1.50
2023-03-06T15:58:16.435Z,1.63
2023-03-06T16:00:43.472Z,1.35
2023-03-06T16:03:11.206Z,1.77
2023-03-06T16:05:38.736Z,1.65
2023-03-06T16:08:06.277Z,1.60
2023-03-06T16:10:35.290Z,1.40
2023-03-06T16:13:09.619Z,1.40
2023-03-06T16:15:39.059Z,1.30
2023-03-06T16:18:06.700Z,1.70
2023-03-06T16:20:33.625Z,1.50
2023-03-06T16:23:00.434Z,1.65
2023-03-06T16:25:28.232Z,1.92
2023-03-06T16:27:59.055Z,1.40
2023-03-06T16:30:26.664Z,1.58
2023-03-06T16:32:54.619Z,1.40
2023-03-06T16:35:21.577Z,1.33
2023-03-06T16:37:48.404Z,1.35
2023-03-06T16:40:18.734Z,1.08
2023-03-06T16:42:45.977Z,1.55
2023-03-06T16:45:13.100Z,1.40
2023-03-06T16:47:40.376Z,1.58
2023-03-06T16:50:07.945Z,1.60
2023-03-06T16:52:34.839Z,1.52
2023-03-06T16:55:01.675Z,1.60
2023-03-06T16:57:32.167Z,1.67
2023-03-06T16:59:59.085Z,1.60
2023-03-06T17:02:25.962Z,1.55
2023-03-06T17:04:52.952Z,1.55
2023-03-06T17:07:19.750Z,1.70
2023-03-06T17:09:46.561Z,1.60
2023-03-06T17:12:13.416Z,1.77
2023-03-06T17:14:40.475Z,2.40
2023-03-06T17:17:07.411Z,2.20
2023-03-06T17:19:34.587Z,1.95
2023-03-06T17:22:01.411Z,1.60
2023-03-06T17:24:28.235Z,1.60
2023-03-06T17:26:55.312Z,2.00
2023-03-06T17:29:22.320Z,1.80
2023-03-06T17:31:49.342Z,1.67
2023-03-06T17:34:16.350Z,1.67
2023-03-06T17:36:44.131Z,1.45
2023-03-06T17:39:12.870Z,1.70
2023-03-06T17:41:39.717Z,1.88
2023-03-06T17:44:06.650Z,1.50
2023-03-06T17:46:34.681Z,1.90
2023-03-06T17:49:01.652Z,1.58
2023-03-06T17:51:28.675Z,1.60
2023-03-06T17:53:55.754Z,1.50
2023-03-06T17:56:22.641Z,1.42
2023-03-06T17:58:49.446Z,1.50
2023-03-06T18:01:17.842Z,1.73
2023-03-06T18:03:45.720Z,1.33
2023-03-06T18:06:13.119Z,1.23
2023-03-06T18:08:41.107Z,1.70
2023-03-06T18:11:09.710Z,1.60
2023-03-06T18:13:40.673Z,1.42
2023-03-06T18:16:08.212Z,1.67
2023-03-06T18:18:35.237Z,1.50
2023-03-06T18:21:05.865Z,1.50
2023-03-06T18:23:32.917Z,1.90
2023-03-06T18:26:09.680Z,1.42
2023-03-06T18:28:36.613Z,1.40
2023-03-06T18:31:08.516Z,1.60
2023-03-06T18:33:35.545Z,1.30
2023-03-06T18:36:03.728Z,1.52
2023-03-06T18:38:30.934Z,1.30
2023-03-06T18:40:57.758Z,1.65
2023-03-06T18:43:24.576Z,1.60
2023-03-06T18:45:57.819Z,1.20
2023-03-06T18:48:24.790Z,1.42
2023-03-06T18:50:51.583Z,1.63
2023-03-06T18:53:18.567Z,1.50
2023-03-06T18:55:48.937Z,1.77
2023-03-06T18:58:15.759Z,1.60
2023-03-06T19:00:43.522Z,1.50
2023-03-06T19:03:10.700Z,1.52
2023-03-06T19:05:41.154Z,1.60
2023-03-06T19:08:08.838Z,1.52
2023-03-06T19:10:39.887Z,1.60
2023-03-06T19:13:07.231Z,1.33
2023-03-06T19:15:34.461Z,1.98
2023-03-06T19:18:01.279Z,1.40
2023-03-06T19:20:28.069Z,1.40
2023-03-06T19:22:54.976Z,1.60
2023-03-06T19:25:21.756Z,1.48
2023-03-06T19:27:48.606Z,1.98
2023-03-06T19:30:15.927Z,2.58
2023-03-06T19:32:46.227Z,2.13
2023-03-06T19:35:13.530Z,2.13
2023-03-06T19:37:41.703Z,2.03
2023-03-06T19:40:08.901Z,2.20
2023-03-06T19:42:36.129Z,1.80
2023-03-06T19:45:03.373Z,1.63
2023-03-06T19:47:30.225Z,1.98
2023-03-06T19:49:57.170Z,1.63
2023-03-06T19:52:24.788Z,1.65
2023-03-06T19:54:52.078Z,1.42
2023-03-06T19:57:19.572Z,2.20
2023-03-06T19:59:52.669Z,1.60
2023-03-06T20:02:19.668Z,1.60
2023-03-06T20:04:46.899Z,1.70
2023-03-06T20:07:13.759Z,1.50
2023-03-06T20:09:40.595Z,1.52
2023-03-06T20:12:08.327Z,1.60
2023-03-06T20:14:35.300Z,1.40
2023-03-06T20:17:02.268Z,1.42
2023-03-06T20:19:29.300Z,1.50
2023-03-06T20:21:56.218Z,1.50
2023-03-06T20:24:23.078Z,1.67
2023-03-06T20:26:51.286Z,1.63
2023-03-06T20:29:18.131Z,1.52
2023-03-06T20:31:45.366Z,1.70
2023-03-06T20:34:13.032Z,1.70
2023-03-06T20:36:40.497Z,1.60
2023-03-06T20:39:09.204Z,1.92
2023-03-06T20:41:36.058Z,1.80
2023-03-06T20:44:04.236Z,1.70
2023-03-06T20:46:31.577Z,1.52
2023-03-06T20:48:59.554Z,1.50
2023-03-06T20:51:28.748Z,1.42
2023-03-06T20:53:55.834Z,1.73
2023-03-06T20:56:24.031Z,2.08
2023-03-06T20:58:51.364Z,1.70
2023-03-06T21:01:39.561Z,1.77
2023-03-06T21:04:06.840Z,1.63
2023-03-06T21:06:33.671Z,1.58
2023-03-06T21:09:01.251Z,1.90
2023-03-06T21:11:28.444Z,1.77
2023-03-06T21:13:55.341Z,1.75
2023-03-06T21:16:24.217Z,1.80
2023-03-06T21:18:51.477Z,1.92
2023-03-06T21:21:20.392Z,2.00
2023-03-06T21:23:47.899Z,1.65
2023-03-06T21:26:15.967Z,2.00
2023-03-06T21:28:42.865Z,2.08
2023-03-06T21:31:10.786Z,1.77
2023-03-06T21:33:37.614Z,1.83
2023-03-06T21:36:04.926Z,1.95
2023-03-06T21:38:31.981Z,1.80
2023-03-06T21:41:28.542Z,1.67
2023-03-06T21:43:56.530Z,1.92
2023-03-06T21:46:23.571Z,1.77
2023-03-06T21:48:50.406Z,1.83
2023-03-06T21:51:19.154Z,1.90
2023-03-06T21:53:46.730Z,1.40
2023-03-06T21:56:14.106Z,1.50
2023-03-06T21:58:41.283Z,1.40
2023-03-06T22:01:09.472Z,1.30
2023-03-06T22:03:36.492Z,1.50
2023-03-06T22:06:07.744Z,1.40
2023-03-06T22:08:34.589Z,1.83
2023-03-06T22:11:05.208Z,1.45
2023-03-06T22:13:32.023Z,1.52
2023-03-06T22:15:59.776Z,1.45
2023-03-06T22:18:26.627Z,1.48
2023-03-06T22:20:53.428Z,1.40
2023-03-06T22:23:20.238Z,1.98
2023-03-06T22:25:47.015Z,1.80
2023-03-06T22:28:15.075Z,1.80
2023-03-06T22:30:41.938Z,1.60
2023-03-06T22:33:08.748Z,1.80
2023-03-06T22:35:35.608Z,1.83
2023-03-06T22:38:04.585Z,1.80
2023-03-06T22:40:31.559Z,1.55
2023-03-06T22:42:58.436Z,1.70
2023-03-06T22:45:25.322Z,1.75
2023-03-06T22:47:57.007Z,1.33
2023-03-06T22:50:26.339Z,1.60
2023-03-06T22:52:53.135Z,2.03
2023-03-06T22:55:19.937Z,1.80
2023-03-06T22:57:46.763Z,1.17
2023-03-06T23:00:14.695Z,1.30
2023-03-06T23:02:41.987Z,1.80
2023-03-06T23:05:08.994Z,1.30
2023-03-06T23:07:35.778Z,1.55
2023-03-06T23:10:02.693Z,1.40
2023-03-06T23:12:29.520Z,1.27
2023-03-06T23:14:56.429Z,1.20
2023-03-06T23:17:23.362Z,1.40
2023-03-06T23:19:50.435Z,1.20
2023-03-06T23:22:17.239Z,1.63
2023-03-06T23:24:44.401Z,1.50
2023-03-06T23:27:11.605Z,1.35
2023-03-06T23:29:38.511Z,1.30
2023-03-06T23:32:05.528Z,1.10
2023-03-06T23:34:32.341Z,1.20
2023-03-06T23:36:59.196Z,1.23
2023-03-06T23:39:26.004Z,1.38
2023-03-06T23:41:52.864Z,1.50
2023-03-06T23:44:19.743Z,1.60
2023-03-06T23:46:46.577Z,1.38
2023-03-06T23:49:13.399Z,1.40
2023-03-06T23:51:40.209Z,1.58
2023-03-06T23:54:07.133Z,1.27
2023-03-06T23:56:33.923Z,1.13
2023-03-06T23:59:00.752Z,1.25
